Time;durP1;ratioP1;P1;durP2;ratioP2;P2;SDS_P1;SDS_P2;PMS_P1;PMS_P2;Temp;Humidity;BMP_temperature;BMP_pressure;BME280_temperature;BME280_humidity;BME280_pressure;Samples;Min_cycle;Max_cycle;Signal;HPM_P1;HPM_P2
2021/09/04 00:02:21;;;;;;;5.35;1.00;;;15.70;99.90;;;;;;4930874;29;20032;-76
2021/09/04 00:04:46;;;;;;;4.22;1.20;;;15.70;99.90;;;;;;4948085;29;20032;-76
2021/09/04 00:07:12;;;;;;;3.67;1.27;;;15.70;99.90;;;;;;4947864;29;20039;-77
2021/09/04 00:09:37;;;;;;;5.43;1.00;;;15.70;99.90;;;;;;4930738;29;20027;-76
2021/09/04 00:12:04;;;;;;;6.72;1.58;;;15.70;99.90;;;;;;4947947;29;20020;-74
2021/09/04 00:14:31;;;;;;;2.95;1.33;;;15.70;99.90;;;;;;4947588;29;20028;-74
2021/09/04 00:16:56;;;;;;;3.55;1.20;;;15.70;99.90;;;;;;4930838;29;20428;-77
2021/09/04 00:19:23;;;;;;;3.10;1.30;;;15.70;99.90;;;;;;4930935;29;20038;-75
2021/09/04 00:21:49;;;;;;;2.55;1.45;;;15.70;99.90;;;;;;4930505;29;20031;-76
2021/09/04 00:24:14;;;;;;;1.80;0.95;;;15.60;99.90;;;;;;4947976;29;20042;-75
2021/09/04 00:26:40;;;;;;;8.80;1.35;;;15.40;99.90;;;;;;4930690;29;20047;-74
2021/09/04 00:29:05;;;;;;;3.58;1.25;;;15.50;99.90;;;;;;4930247;29;20019;-74
2021/09/04 00:31:31;;;;;;;3.97;1.55;;;15.50;99.90;;;;;;4947594;29;20059;-75
2021/09/04 00:33:56;;;;;;;11.25;1.85;;;15.50;99.90;;;;;;4947362;29;20058;-76
2021/09/04 00:36:22;;;;;;;3.33;1.30;;;15.40;99.90;;;;;;4947506;29;20031;-76
2021/09/04 00:38:47;;;;;;;4.93;1.50;;;15.40;99.90;;;;;;4947714;29;20404;-75
2021/09/04 00:41:21;;;;;;;1.88;1.10;;;15.40;99.90;;;;;;4930492;29;20092;-76
2021/09/04 00:43:49;;;;;;;3.43;1.13;;;15.50;99.90;;;;;;4947526;29;20036;-75
2021/09/04 00:46:15;;;;;;;4.05;1.40;;;15.50;99.90;;;;;;4947709;29;20028;-74
2021/09/04 00:48:41;;;;;;;2.78;1.33;;;15.40;99.90;;;;;;4947304;29;20087;-74
2021/09/04 00:51:07;;;;;;;3.22;1.38;;;15.40;99.90;;;;;;4947202;29;20461;-75
2021/09/04 00:53:34;;;;;;;3.63;1.40;;;15.50;99.90;;;;;;4947444;29;20031;-76
2021/09/04 00:56:00;;;;;;;6.70;1.27;;;15.50;99.90;;;;;;4930145;29;20063;-75
2021/09/04 00:58:26;;;;;;;3.25;0.90;;;15.50;99.90;;;;;;4946787;29;20468;-76
2021/09/04 01:00:53;;;;;;;3.30;0.95;;;15.50;99.90;;;;;;4930064;29;20028;-76
2021/09/04 01:03:19;;;;;;;12.45;1.45;;;15.40;99.90;;;;;;4947075;29;20039;-75
2021/09/04 01:05:47;;;;;;;2.92;1.27;;;15.40;99.90;;;;;;4947342;29;20028;-75
2021/09/04 01:08:13;;;;;;;3.60;1.63;;;15.40;99.90;;;;;;4930047;29;20420;-75
2021/09/04 01:10:39;;;;;;;8.82;1.55;;;15.40;99.90;;;;;;4946851;29;20051;-75
2021/09/04 01:13:04;;;;;;;7.03;1.05;;;15.40;99.90;;;;;;4929879;29;20035;-76
2021/09/04 01:15:30;;;;;;;7.53;1.13;;;15.30;99.90;;;;;;4930175;29;20095;-76
2021/09/04 01:18:03;;;;;;;2.40;1.30;;;15.50;99.90;;;;;;4932338;29;20411;-75
2021/09/04 01:20:29;;;;;;;6.93;1.27;;;15.50;99.90;;;;;;4951080;29;20035;-77
2021/09/04 01:22:55;;;;;;;3.85;1.50;;;15.60;99.90;;;;;;4951165;29;20035;-77
2021/09/04 01:25:28;;;;;;;1.88;0.70;;;15.50;99.90;;;;;;4950987;29;20035;-76
2021/09/04 01:27:56;;;;;;;2.72;1.33;;;15.50;99.90;;;;;;4950976;29;20091;-77
2021/09/04 01:30:22;;;;;;;3.17;1.30;;;15.50;99.90;;;;;;4951210;29;20087;-76
2021/09/04 01:32:48;;;;;;;2.95;1.35;;;15.50;99.90;;;;;;4950490;29;20042;-75
2021/09/04 01:35:23;;;;;;;3.45;1.35;;;15.50;99.90;;;;;;4950491;29;20079;-76
2021/09/04 01:37:50;;;;;;;2.45;1.50;;;15.50;99.90;;;;;;4951036;29;20031;-75
2021/09/04 01:40:16;;;;;;;2.30;1.23;;;15.50;99.90;;;;;;4950413;29;20031;-75
2021/09/04 01:42:44;;;;;;;5.15;1.52;;;15.40;99.90;;;;;;4950682;29;20036;-76
2021/09/04 01:45:11;;;;;;;7.32;1.52;;;15.50;99.90;;;;;;4951305;29;20031;-75
2021/09/04 01:47:37;;;;;;;2.67;1.17;;;15.40;99.90;;;;;;4955814;28;20051;-76
2021/09/04 01:50:04;;;;;;;3.58;1.70;;;15.40;99.90;;;;;;4950405;29;20079;-76
2021/09/04 01:52:30;;;;;;;6.93;1.77;;;15.40;99.90;;;;;;4950125;29;20035;-77
2021/09/04 01:54:55;;;;;;;3.40;1.23;;;15.40;99.90;;;;;;4933144;29;20027;-76
2021/09/04 01:57:21;;;;;;;2.53;1.60;;;15.40;99.90;;;;;;4950741;29;20028;-77
2021/09/04 01:59:46;;;;;;;2.58;1.67;;;15.40;99.90;;;;;;4950062;29;20035;-77
2021/09/04 02:02:14;;;;;;;13.07;1.58;;;15.40;99.90;;;;;;4950138;29;20024;-77
2021/09/04 02:04:40;;;;;;;3.95;1.40;;;15.50;99.90;;;;;;4950261;29;20036;-77
2021/09/04 02:07:05;;;;;;;1.40;1.02;;;15.50;99.90;;;;;;4932529;29;20040;-77
2021/09/04 02:09:32;;;;;;;4.72;1.20;;;15.50;99.90;;;;;;4950162;29;20039;-76
2021/09/04 02:11:57;;;;;;;3.03;1.35;;;15.50;99.90;;;;;;4950097;29;20050;-77
2021/09/04 02:14:23;;;;;;;5.40;0.98;;;15.50;99.90;;;;;;4932532;29;20028;-77
2021/09/04 02:16:50;;;;;;;4.43;1.50;;;15.40;99.90;;;;;;4950432;29;20063;-78
2021/09/04 02:19:15;;;;;;;3.33;1.65;;;15.40;99.90;;;;;;4932921;29;20028;-77
2021/09/04 02:21:41;;;;;;;6.55;1.50;;;15.40;99.90;;;;;;4932730;29;20038;-74
2021/09/04 02:24:07;;;;;;;3.30;1.52;;;15.40;99.90;;;;;;4949974;29;20039;-77
2021/09/04 02:26:33;;;;;;;6.53;1.13;;;15.40;99.90;;;;;;4932457;29;20095;-76
2021/09/04 02:28:58;;;;;;;2.03;1.08;;;15.40;99.90;;;;;;4932296;29;20070;-78
2021/09/04 02:31:24;;;;;;;2.58;1.00;;;15.40;99.90;;;;;;4949950;29;20035;-77
2021/09/04 02:33:54;;;;;;;8.00;1.27;;;15.40;99.90;;;;;;4949300;29;20032;-77
2021/09/04 02:36:20;;;;;;;1.67;1.30;;;15.40;99.90;;;;;;4949852;29;20034;-77
2021/09/04 02:38:47;;;;;;;2.20;1.17;;;15.40;99.90;;;;;;4932465;29;20027;-76
2021/09/04 02:41:13;;;;;;;3.75;1.38;;;15.40;99.90;;;;;;4949359;29;20039;-77
2021/09/04 02:43:39;;;;;;;2.42;0.98;;;15.30;99.90;;;;;;4932325;29;20063;-76
2021/09/04 02:46:04;;;;;;;2.17;1.10;;;15.40;99.90;;;;;;4949447;29;20079;-77
2021/09/04 02:48:30;;;;;;;4.18;1.40;;;15.30;99.90;;;;;;4949130;29;20424;-77
2021/09/04 02:50:55;;;;;;;3.50;0.88;;;15.30;99.90;;;;;;4932303;29;20052;-75
2021/09/04 02:53:21;;;;;;;2.78;1.23;;;15.40;99.90;;;;;;4949444;29;20032;-77
2021/09/04 02:55:47;;;;;;;1.33;0.77;;;15.30;99.90;;;;;;4949675;29;20043;-76
2021/09/04 02:58:12;;;;;;;2.25;0.95;;;15.20;99.90;;;;;;4932273;29;20059;-79
2021/09/04 03:00:38;;;;;;;6.50;1.13;;;15.30;99.90;;;;;;4949027;29;20032;-76
2021/09/04 03:03:03;;;;;;;3.95;1.25;;;15.30;99.90;;;;;;4931983;29;20027;-77
2021/09/04 03:05:31;;;;;;;2.33;1.10;;;15.30;99.90;;;;;;4949187;29;20039;-76
2021/09/04 03:07:57;;;;;;;2.75;1.23;;;15.40;99.90;;;;;;4931496;29;20043;-76
2021/09/04 03:10:23;;;;;;;1.63;0.93;;;15.30;99.90;;;;;;4932067;29;20446;-78
2021/09/04 03:12:49;;;;;;;5.57;1.40;;;15.20;99.90;;;;;;4949356;29;20047;-79
2021/09/04 03:15:15;;;;;;;1.88;1.13;;;15.30;99.90;;;;;;4949155;29;20078;-78
2021/09/04 03:17:41;;;;;;;4.07;1.23;;;15.30;99.90;;;;;;4948947;29;20031;-77
2021/09/04 03:20:08;;;;;;;9.43;1.15;;;15.40;99.90;;;;;;4948882;29;20091;-76
2021/09/04 03:22:34;;;;;;;2.95;0.95;;;15.40;99.90;;;;;;4948625;29;20051;-77
2021/09/04 03:25:00;;;;;;;5.47;1.50;;;15.40;99.90;;;;;;4931553;29;20059;-76
2021/09/04 03:27:26;;;;;;;1.90;0.90;;;15.40;99.90;;;;;;4948827;29;20063;-78
2021/09/04 03:29:52;;;;;;;1.83;0.90;;;15.40;99.90;;;;;;4931556;29;20028;-76
2021/09/04 03:32:18;;;;;;;3.78;1.17;;;15.30;99.90;;;;;;4948972;29;20413;-75
2021/09/04 03:34:43;;;;;;;2.78;1.10;;;15.30;99.90;;;;;;4948371;29;20098;-77
2021/09/04 03:37:09;;;;;;;3.25;0.73;;;15.40;99.90;;;;;;4948212;29;20028;-76
2021/09/04 03:39:34;;;;;;;4.20;1.63;;;15.30;99.90;;;;;;4948257;29;20064;-75
2021/09/04 03:42:00;;;;;;;1.70;1.00;;;15.30;99.90;;;;;;4948276;29;20032;-76
2021/09/04 03:44:25;;;;;;;2.58;1.30;;;15.30;99.90;;;;;;4948428;29;20070;-77
2021/09/04 03:46:51;;;;;;;2.22;0.80;;;15.30;99.90;;;;;;4948613;29;20040;-77
2021/09/04 03:49:16;;;;;;;3.58;1.13;;;15.20;99.90;;;;;;4948011;29;20034;-75
2021/09/04 03:51:42;;;;;;;2.95;1.20;;;15.30;99.90;;;;;;4946875;29;20046;-77
2021/09/04 03:54:08;;;;;;;4.57;1.65;;;15.20;99.90;;;;;;4931267;29;20068;-76
2021/09/04 03:56:34;;;;;;;5.50;1.15;;;15.20;99.90;;;;;;4931051;29;20027;-77
2021/09/04 03:58:59;;;;;;;9.48;1.33;;;15.20;99.90;;;;;;4931145;29;20112;-77
2021/09/04 04:01:25;;;;;;;4.13;1.33;;;15.20;99.90;;;;;;4948748;29;20032;-76
2021/09/04 04:03:50;;;;;;;3.30;1.17;;;15.30;99.90;;;;;;4947915;29;20036;-77
2021/09/04 04:06:16;;;;;;;3.33;1.20;;;15.20;99.90;;;;;;4948317;29;20039;-77
2021/09/04 04:08:42;;;;;;;3.85;1.85;;;15.20;99.90;;;;;;4947835;29;20575;-77
2021/09/04 04:11:09;;;;;;;2.20;1.00;;;15.20;99.90;;;;;;4930495;29;20047;-77
2021/09/04 04:13:36;;;;;;;4.57;1.60;;;15.20;99.90;;;;;;4947948;29;20408;-77
2021/09/04 04:16:02;;;;;;;6.43;1.65;;;15.20;99.90;;;;;;4948039;29;20030;-76
2021/09/04 04:18:27;;;;;;;10.88;1.75;;;15.20;99.90;;;;;;4947448;29;20020;-76
2021/09/04 04:20:53;;;;;;;3.13;1.42;;;15.20;99.90;;;;;;4947921;29;20039;-75
2021/09/04 04:23:18;;;;;;;2.33;1.38;;;15.20;99.90;;;;;;4948071;29;20118;-76
2021/09/04 04:25:44;;;;;;;3.10;1.42;;;15.20;99.90;;;;;;4947338;29;20399;-75
2021/09/04 04:28:09;;;;;;;2.42;1.55;;;15.20;99.90;;;;;;4930510;29;20040;-75
2021/09/04 04:30:35;;;;;;;7.85;1.30;;;15.20;99.90;;;;;;4947720;29;20063;-75
2021/09/04 04:33:01;;;;;;;1.73;0.85;;;15.20;99.90;;;;;;4930181;29;20128;-75
2021/09/04 04:35:26;;;;;;;3.72;1.42;;;15.20;99.90;;;;;;4947458;29;20066;-78
2021/09/04 04:37:52;;;;;;;3.15;0.68;;;15.20;99.90;;;;;;4947669;29;20040;-76
2021/09/04 04:40:17;;;;;;;2.35;1.13;;;15.20;99.90;;;;;;4947554;29;20091;-76
2021/09/04 04:42:43;;;;;;;2.15;0.95;;;15.20;99.90;;;;;;4947689;29;20039;-76
2021/09/04 04:45:09;;;;;;;5.72;1.23;;;15.20;99.90;;;;;;4947086;29;20035;-76
2021/09/04 04:47:34;;;;;;;4.53;1.52;;;15.10;99.90;;;;;;4947169;29;20121;-75
2021/09/04 04:50:01;;;;;;;2.05;1.23;;;15.10;99.90;;;;;;4930294;29;20037;-76
2021/09/04 04:52:26;;;;;;;1.80;1.13;;;15.10;99.90;;;;;;4927587;29;20024;-75
2021/09/04 04:54:52;;;;;;;4.05;0.88;;;15.10;99.90;;;;;;4945469;29;20111;-74
2021/09/04 04:57:18;;;;;;;4.13;1.45;;;15.20;99.90;;;;;;4947262;29;20031;-75
2021/09/04 04:59:44;;;;;;;5.90;1.55;;;15.10;99.90;;;;;;4946921;29;20036;-75
2021/09/04 05:02:09;;;;;;;11.13;1.95;;;15.10;99.90;;;;;;4947086;29;20682;-75
2021/09/04 05:04:35;;;;;;;3.85;1.48;;;15.10;99.90;;;;;;4926629;29;20024;-75
2021/09/04 05:07:00;;;;;;;4.85;1.67;;;15.20;99.90;;;;;;4934551;29;20040;-74
2021/09/04 05:09:26;;;;;;;2.60;1.50;;;15.10;99.90;;;;;;4919115;29;20076;-75
2021/09/04 05:11:52;;;;;;;2.92;1.33;;;15.10;99.90;;;;;;4928100;29;20396;-75
2021/09/04 05:14:17;;;;;;;2.53;1.13;;;15.10;99.90;;;;;;4927703;29;20040;-75
2021/09/04 05:16:43;;;;;;;4.10;1.50;;;15.10;99.90;;;;;;4929410;29;20052;-75
2021/09/04 05:19:08;;;;;;;4.22;1.40;;;15.20;99.90;;;;;;4941515;29;20042;-75
2021/09/04 05:21:34;;;;;;;6.30;1.70;;;15.20;99.90;;;;;;4927266;29;20034;-75
2021/09/04 05:24:00;;;;;;;3.38;1.45;;;15.20;99.90;;;;;;4925810;29;20035;-76
2021/09/04 05:26:25;;;;;;;3.30;1.35;;;15.10;99.90;;;;;;4943925;29;20031;-75
2021/09/04 05:28:51;;;;;;;6.22;1.10;;;15.20;99.90;;;;;;4942467;29;20107;-75
2021/09/04 05:31:17;;;;;;;2.40;1.13;;;15.20;99.90;;;;;;4930027;29;20056;-75
2021/09/04 05:33:42;;;;;;;3.63;1.30;;;15.20;99.90;;;;;;4940820;29;20031;-74
2021/09/04 05:36:08;;;;;;;2.50;1.33;;;15.20;99.90;;;;;;4945680;29;20083;-75
2021/09/04 05:38:35;;;;;;;5.03;1.67;;;15.20;99.90;;;;;;4945947;29;20028;-73
2021/09/04 05:41:02;;;;;;;4.97;1.50;;;15.20;99.90;;;;;;4928489;29;20099;-73
2021/09/04 05:43:27;;;;;;;1.70;1.08;;;15.30;99.90;;;;;;4942357;29;20020;-75
2021/09/04 05:45:54;;;;;;;7.53;1.63;;;15.40;99.90;;;;;;4932159;29;20039;-73
2021/09/04 05:48:19;;;;;;;2.97;1.50;;;15.30;99.90;;;;;;4923584;29;20132;-73
2021/09/04 05:50:45;;;;;;;5.78;1.45;;;15.20;99.90;;;;;;4935337;29;20099;-74
2021/09/04 05:53:10;;;;;;;4.93;0.93;;;15.40;99.90;;;;;;4932337;29;20024;-74
2021/09/04 05:55:36;;;;;;;1.75;0.95;;;15.40;99.90;;;;;;4927341;29;20032;-73
2021/09/04 05:58:02;;;;;;;3.88;1.42;;;15.40;99.90;;;;;;4924549;29;20036;-74
2021/09/04 06:00:28;;;;;;;3.90;1.35;;;15.50;99.90;;;;;;4926481;29;20032;-75
2021/09/04 06:02:54;;;;;;;3.85;1.13;;;15.40;99.90;;;;;;4946705;29;20499;-74
2021/09/04 06:05:20;;;;;;;8.10;2.22;;;15.50;99.90;;;;;;4949073;29;20036;-74
2021/09/04 06:07:45;;;;;;;5.18;1.33;;;15.50;99.90;;;;;;4950007;29;20039;-74
2021/09/04 06:10:11;;;;;;;2.13;1.20;;;15.60;99.90;;;;;;4949113;29;20511;-75
2021/09/04 06:12:37;;;;;;;2.20;1.15;;;15.70;99.90;;;;;;4949901;29;20058;-75
2021/09/04 06:15:03;;;;;;;8.27;1.38;;;15.70;99.90;;;;;;4948188;29;20042;-74
2021/09/04 06:17:29;;;;;;;14.15;1.70;;;15.70;99.90;;;;;;4949062;29;20111;-74
2021/09/04 06:19:54;;;;;;;1.48;0.95;;;15.80;99.90;;;;;;4949500;29;20040;-75
2021/09/04 06:22:20;;;;;;;8.35;1.42;;;15.80;99.90;;;;;;4950099;29;20087;-75
2021/09/04 06:24:45;;;;;;;2.63;1.23;;;15.80;99.90;;;;;;4949666;29;20040;-74
2021/09/04 06:27:11;;;;;;;2.33;1.13;;;15.90;99.90;;;;;;4949887;29;20046;-74
2021/09/04 06:29:37;;;;;;;17.85;1.70;;;15.90;99.90;;;;;;4949821;29;20052;-74
2021/09/04 06:32:05;;;;;;;7.18;1.70;;;16.00;99.90;;;;;;4949184;29;20361;-75
2021/09/04 06:34:30;;;;;;;2.80;0.93;;;16.10;99.90;;;;;;4949331;29;20059;-74
2021/09/04 06:36:56;;;;;;;2.42;1.10;;;16.10;99.90;;;;;;4949687;29;20040;-74
2021/09/04 06:39:21;;;;;;;4.22;1.50;;;16.20;99.90;;;;;;4949848;29;20480;-74
2021/09/04 06:41:47;;;;;;;3.05;1.33;;;16.20;99.90;;;;;;4949277;29;20043;-73
2021/09/04 06:44:13;;;;;;;2.33;1.40;;;16.20;99.90;;;;;;4949348;29;20031;-73
2021/09/04 06:46:39;;;;;;;7.85;1.50;;;16.30;99.90;;;;;;4932186;29;20481;-74
2021/09/04 06:49:04;;;;;;;3.50;1.75;;;16.30;99.90;;;;;;4949716;29;20028;-74
2021/09/04 06:51:30;;;;;;;2.35;1.35;;;16.40;99.90;;;;;;4947268;29;20135;-74
2021/09/04 06:53:55;;;;;;;2.33;1.08;;;16.40;99.90;;;;;;4949429;29;20039;-74
2021/09/04 06:56:21;;;;;;;8.52;1.75;;;16.50;99.90;;;;;;4949472;29;20028;-75
2021/09/04 06:58:47;;;;;;;2.63;0.98;;;16.50;99.90;;;;;;4949057;29;20032;-75
2021/09/04 07:01:12;;;;;;;2.05;1.30;;;16.50;99.90;;;;;;4948359;29;20023;-74
2021/09/04 07:03:38;;;;;;;1.77;1.25;;;16.50;99.90;;;;;;4931908;29;20032;-74
2021/09/04 07:06:04;;;;;;;5.93;1.65;;;16.50;99.90;;;;;;4929513;29;20024;-76
2021/09/04 07:08:30;;;;;;;7.28;1.45;;;16.60;99.90;;;;;;4949000;29;20440;-74
2021/09/04 07:10:56;;;;;;;1.92;1.15;;;16.60;99.90;;;;;;4947577;29;20051;-74
2021/09/04 07:13:21;;;;;;;5.28;1.73;;;16.70;99.90;;;;;;4945883;29;20028;-74
2021/09/04 07:15:47;;;;;;;3.85;1.23;;;16.60;99.90;;;;;;4938525;29;20959;-74
2021/09/04 07:18:13;;;;;;;3.22;1.08;;;16.80;99.90;;;;;;4947179;29;20115;-74
2021/09/04 07:20:39;;;;;;;4.60;1.15;;;16.70;99.90;;;;;;4939851;29;20425;-74
2021/09/04 07:23:04;;;;;;;3.63;1.52;;;16.80;99.90;;;;;;4937914;29;20096;-74
2021/09/04 07:25:30;;;;;;;5.20;1.63;;;16.80;99.90;;;;;;4934675;29;20489;-74
2021/09/04 07:27:56;;;;;;;4.57;1.23;;;16.70;99.90;;;;;;4931038;29;20075;-75
2021/09/04 07:30:22;;;;;;;8.45;1.55;;;16.90;99.90;;;;;;4936015;29;20400;-77
2021/09/04 07:32:48;;;;;;;3.50;1.52;;;16.90;99.90;;;;;;4932831;29;20035;-74
2021/09/04 07:35:13;;;;;;;5.40;1.65;;;16.80;99.90;;;;;;4945575;29;20641;-74
2021/09/04 07:37:39;;;;;;;11.93;1.67;;;16.90;99.90;;;;;;4947209;29;20099;-74
2021/09/04 07:40:13;;;;;;;3.15;1.60;;;16.90;99.90;;;;;;4947967;29;20024;-74
2021/09/04 07:42:39;;;;;;;4.20;1.73;;;17.00;99.90;;;;;;4939307;29;20032;-74
2021/09/04 07:45:08;;;;;;;2.85;1.30;;;17.10;99.90;;;;;;4928581;29;20096;-76
2021/09/04 07:47:33;;;;;;;5.45;2.03;;;17.10;99.90;;;;;;4930931;29;20039;-74
2021/09/04 07:49:59;;;;;;;7.78;3.03;;;17.10;99.90;;;;;;4920905;29;20135;-74
2021/09/04 07:52:25;;;;;;;9.18;2.00;;;17.10;99.90;;;;;;4939018;29;20024;-74
2021/09/04 07:54:50;;;;;;;5.00;2.08;;;17.20;99.90;;;;;;4928001;29;20486;-75
2021/09/04 07:57:16;;;;;;;5.45;2.60;;;17.30;99.90;;;;;;4927012;29;20032;-74
2021/09/04 07:59:41;;;;;;;5.78;3.03;;;17.30;99.90;;;;;;4915053;29;20058;-73
2021/09/04 08:02:08;;;;;;;8.13;2.85;;;17.40;99.90;;;;;;4927217;29;20036;-74
2021/09/04 08:04:33;;;;;;;8.25;2.67;;;17.40;99.90;;;;;;4941306;29;20032;-74
2021/09/04 08:06:59;;;;;;;11.73;3.22;;;17.30;99.90;;;;;;4939956;29;20953;-72
2021/09/04 08:09:28;;;;;;;9.02;3.22;;;17.30;99.90;;;;;;4943862;29;20032;-73
2021/09/04 08:11:54;;;;;;;7.03;3.15;;;17.40;99.90;;;;;;4937953;29;20036;-74
2021/09/04 08:14:19;;;;;;;9.32;2.97;;;17.40;99.90;;;;;;4934761;29;20043;-73
2021/09/04 08:16:48;;;;;;;13.52;3.58;;;17.40;99.90;;;;;;4940918;29;20028;-75
2021/09/04 08:19:15;;;;;;;8.50;2.75;;;17.40;99.90;;;;;;4932971;29;20039;-74
2021/09/04 08:21:41;;;;;;;9.25;2.95;;;17.40;99.90;;;;;;4937023;29;20035;-72
2021/09/04 08:24:06;;;;;;;6.28;2.83;;;17.40;99.90;;;;;;4934520;29;20099;-73
2021/09/04 08:26:32;;;;;;;6.75;2.78;;;17.40;99.90;;;;;;4940080;29;20035;-73
2021/09/04 08:28:58;;;;;;;6.32;2.67;;;17.50;99.90;;;;;;4926275;29;20055;-74
2021/09/04 08:31:24;;;;;;;8.52;2.75;;;17.50;99.90;;;;;;4935424;29;20097;-72
2021/09/04 08:33:50;;;;;;;7.15;2.80;;;17.60;99.90;;;;;;4941301;29;20604;-73
2021/09/04 08:36:15;;;;;;;11.57;3.00;;;17.70;99.90;;;;;;4928822;29;20024;-74
2021/09/04 08:38:41;;;;;;;10.35;2.83;;;17.70;99.90;;;;;;4947053;29;20035;-74
2021/09/04 08:41:07;;;;;;;10.60;3.58;;;17.80;99.90;;;;;;4929494;29;20034;-73
2021/09/04 08:43:33;;;;;;;5.97;3.00;;;17.90;99.90;;;;;;4947350;29;20051;-74
2021/09/04 08:46:01;;;;;;;8.52;3.05;;;17.90;99.90;;;;;;4927606;29;20036;-74
2021/09/04 08:48:27;;;;;;;8.60;2.80;;;17.90;99.90;;;;;;4946382;29;20047;-76
2021/09/04 08:50:54;;;;;;;6.03;2.47;;;17.80;99.90;;;;;;4947430;29;20051;-74
2021/09/04 08:53:26;;;;;;;6.82;2.38;;;17.90;99.90;;;;;;4944863;29;20087;-74
2021/09/04 08:55:52;;;;;;;12.13;2.65;;;17.90;99.90;;;;;;4932146;29;20028;-73
2021/09/04 08:58:28;;;;;;;9.52;2.65;;;17.90;99.90;;;;;;4928515;29;20059;-73
2021/09/04 09:00:55;;;;;;;14.18;2.85;;;17.90;99.90;;;;;;4937735;29;20035;-74
2021/09/04 09:03:28;;;;;;;3.05;1.85;;;18.00;99.90;;;;;;4936665;29;20027;-75
2021/09/04 09:05:55;;;;;;;4.72;2.08;;;18.20;99.90;;;;;;4932446;29;20477;-74
2021/09/04 09:08:26;;;;;;;5.00;2.35;;;18.20;99.90;;;;;;4933889;29;20052;-75
2021/09/04 09:10:55;;;;;;;6.38;2.42;;;18.30;99.90;;;;;;4936106;29;20047;-74
2021/09/04 09:13:22;;;;;;;4.50;2.53;;;18.30;99.90;;;;;;4942101;29;20052;-73
2021/09/04 09:15:48;;;;;;;5.70;2.10;;;18.40;99.90;;;;;;4941310;29;20040;-72
2021/09/04 09:18:15;;;;;;;9.18;2.75;;;18.30;99.90;;;;;;4940776;29;20028;-73
2021/09/04 09:20:43;;;;;;;8.77;2.88;;;18.40;99.90;;;;;;4944171;29;20022;-73
2021/09/04 09:23:19;;;;;;;8.02;2.25;;;18.40;99.90;;;;;;4940032;29;20505;-72
2021/09/04 09:25:46;;;;;;;9.85;2.92;;;18.30;99.90;;;;;;4946255;29;20050;-73
2021/09/04 09:28:19;;;;;;;5.07;2.33;;;18.50;99.90;;;;;;4946733;29;20639;-72
2021/09/04 09:30:50;;;;;;;6.43;2.60;;;18.70;99.90;;;;;;4946553;29;20071;-74
2021/09/04 09:33:22;;;;;;;12.27;2.80;;;18.80;99.90;;;;;;4946521;29;20038;-73
2021/09/04 09:35:51;;;;;;;9.77;2.55;;;18.90;99.90;;;;;;4946201;29;20447;-73
2021/09/04 09:38:19;;;;;;;5.13;2.65;;;18.90;99.90;;;;;;4947845;29;20031;-73
2021/09/04 09:40:45;;;;;;;5.53;2.75;;;19.00;99.90;;;;;;4949263;29;20036;-73
2021/09/04 09:43:16;;;;;;;7.75;2.95;;;19.10;99.90;;;;;;4932923;29;20039;-72
2021/09/04 09:45:48;;;;;;;9.90;2.88;;;19.10;99.90;;;;;;4932612;29;20078;-74
2021/09/04 09:48:28;;;;;;;5.15;2.65;;;19.10;99.90;;;;;;4931623;29;20061;-73
2021/09/04 09:50:57;;;;;;;4.78;2.22;;;19.00;99.90;;;;;;4920118;29;20099;-75
2021/09/04 09:53:25;;;;;;;4.60;2.38;;;18.90;99.90;;;;;;4944910;29;20024;-74
2021/09/04 09:55:53;;;;;;;7.88;2.95;;;19.00;99.90;;;;;;4938584;29;20123;-76
2021/09/04 09:58:20;;;;;;;7.35;2.55;;;19.10;99.90;;;;;;4937533;29;20036;-74
2021/09/04 10:00:48;;;;;;;9.25;2.92;;;19.20;99.90;;;;;;4944990;29;20044;-73
2021/09/04 10:03:14;;;;;;;6.25;2.05;;;19.40;99.90;;;;;;4945831;29;20038;-73
2021/09/04 10:05:41;;;;;;;8.93;2.63;;;19.40;99.90;;;;;;4922387;29;20055;-74
2021/09/04 10:08:07;;;;;;;8.60;3.17;;;19.30;99.90;;;;;;4933361;29;20064;-73
2021/09/04 10:10:40;;;;;;;6.85;2.38;;;19.30;99.90;;;;;;4941817;29;20024;-75
2021/09/04 10:13:06;;;;;;;14.13;2.60;;;19.30;99.90;;;;;;4944166;29;20373;-74
2021/09/04 10:15:35;;;;;;;12.57;2.97;;;19.30;99.90;;;;;;4948138;29;20024;-73
2021/09/04 10:18:04;;;;;;;4.82;2.65;;;19.30;99.90;;;;;;4946380;29;20031;-73
2021/09/04 10:20:30;;;;;;;10.95;2.88;;;19.30;99.90;;;;;;4931976;29;20465;-73
2021/09/04 10:23:17;;;;;;;9.38;2.80;;;19.30;99.90;;;;;;4949253;29;20035;-74
2021/09/04 10:25:43;;;;;;;14.02;2.30;;;19.40;99.90;;;;;;4949665;29;20051;-74
2021/09/04 10:28:08;;;;;;;6.20;2.03;;;19.40;99.90;;;;;;4949328;29;20035;-76
2021/09/04 10:30:38;;;;;;;9.32;2.85;;;19.40;99.90;;;;;;4931687;29;20032;-74
2021/09/04 10:33:16;;;;;;;4.47;2.20;;;19.50;99.90;;;;;;4932226;29;20035;-70
2021/09/04 10:35:45;;;;;;;7.18;2.95;;;19.50;99.90;;;;;;4949356;29;20071;-73
2021/09/04 10:38:23;;;;;;;7.65;2.25;;;19.60;99.90;;;;;;4950131;29;20111;-73
2021/09/04 10:40:53;;;;;;;9.60;3.03;;;19.70;99.90;;;;;;4932713;29;20035;-73
2021/09/04 10:43:20;;;;;;;7.10;2.72;;;19.80;99.90;;;;;;4950055;29;20024;-72
2021/09/04 10:45:50;;;;;;;7.13;2.42;;;19.80;99.90;;;;;;4932512;29;20034;-74
2021/09/04 10:48:18;;;;;;;7.38;2.78;;;19.80;99.90;;;;;;4949181;29;20039;-72
2021/09/04 10:51:01;;;;;;;7.53;2.33;;;19.70;99.90;;;;;;4930828;29;20037;-72
2021/09/04 10:53:51;;;;;;;6.05;2.63;;;19.70;99.90;;;;;;4949578;29;20031;-72
2021/09/04 10:56:21;;;;;;;6.53;2.60;;;19.70;99.90;;;;;;4949232;29;20028;-75
2021/09/04 10:58:49;;;;;;;10.60;2.92;;;19.60;99.90;;;;;;4930760;29;20067;-71
2021/09/04 11:01:25;;;;;;;17.55;2.40;;;19.80;99.90;;;;;;4949332;29;20035;-76
2021/09/04 11:03:55;;;;;;;5.70;2.45;;;20.00;99.90;;;;;;4931976;29;20105;-73
2021/09/04 11:06:23;;;;;;;7.85;2.72;;;20.20;99.90;;;;;;4932247;29;20070;-72
2021/09/04 11:08:50;;;;;;;8.52;2.55;;;20.20;99.90;;;;;;4949246;29;20043;-72
2021/09/04 11:11:24;;;;;;;6.65;2.33;;;20.10;99.90;;;;;;4930728;29;20119;-72
2021/09/04 11:13:56;;;;;;;11.07;2.30;;;20.20;99.90;;;;;;4931921;29;20496;-72
2021/09/04 11:16:36;;;;;;;4.60;2.30;;;20.20;99.90;;;;;;4949363;29;20051;-73
2021/09/04 11:19:13;;;;;;;6.93;2.58;;;20.20;99.90;;;;;;4948861;29;20097;-73
2021/09/04 11:22:12;;;;;;;6.55;2.70;;;20.50;99.90;;;;;;4949065;29;20042;-73
2021/09/04 11:24:43;;;;;;;3.58;2.17;;;20.80;99.90;;;;;;4942663;29;20036;-71
2021/09/04 11:27:12;;;;;;;10.18;3.15;;;21.10;99.90;;;;;;4948535;29;20044;-71
2021/09/04 11:29:38;;;;;;;4.40;2.22;;;21.00;99.90;;;;;;4948961;29;20028;-72
2021/09/04 11:32:04;;;;;;;6.10;2.13;;;21.00;99.90;;;;;;4948318;29;20027;-71
2021/09/04 11:34:38;;;;;;;5.57;2.20;;;21.10;99.90;;;;;;4948611;29;20436;-72
2021/09/04 11:37:17;;;;;;;10.95;2.72;;;21.30;99.90;;;;;;4948923;29;20035;-73
2021/09/04 11:39:44;;;;;;;3.50;1.85;;;21.60;99.90;;;;;;4948171;29;20055;-73
2021/09/04 11:42:17;;;;;;;3.90;1.85;;;21.70;99.90;;;;;;4931316;29;20126;-73
2021/09/04 11:44:47;;;;;;;4.50;2.17;;;21.80;99.90;;;;;;4948510;29;20512;-73
2021/09/04 11:47:13;;;;;;;4.80;1.90;;;21.90;99.90;;;;;;4948350;29;20086;-71
2021/09/04 11:49:51;;;;;;;3.90;1.75;;;22.10;99.90;;;;;;4948278;29;20102;-73
2021/09/04 11:52:25;;;;;;;5.82;2.40;;;22.30;99.90;;;;;;4948273;29;20385;-74
2021/09/04 11:55:02;;;;;;;4.05;2.08;;;22.40;99.90;;;;;;4948440;29;20035;-74
2021/09/04 11:57:30;;;;;;;5.68;2.28;;;22.60;99.90;;;;;;4948232;29;20125;-73
2021/09/04 12:00:00;;;;;;;3.83;1.95;;;22.80;99.90;;;;;;4947880;29;20024;-72
2021/09/04 12:02:26;;;;;;;6.50;1.98;;;22.80;99.90;;;;;;4947995;29;20032;-71
2021/09/04 12:04:54;;;;;;;4.15;2.08;;;22.70;99.90;;;;;;4948201;29;20028;-74
2021/09/04 12:07:25;;;;;;;8.15;2.40;;;22.50;99.90;;;;;;4947671;29;20044;-72
2021/09/04 12:09:53;;;;;;;7.22;1.95;;;22.50;99.90;;;;;;4948100;29;20079;-74
2021/09/04 12:12:18;;;;;;;6.40;2.47;;;22.40;99.90;;;;;;4948036;29;20032;-73
2021/09/04 12:14:44;;;;;;;10.88;2.05;;;22.30;99.90;;;;;;4947554;29;20032;-73
2021/09/04 12:17:09;;;;;;;10.55;2.65;;;22.00;99.90;;;;;;4948098;29;20032;-73
2021/09/04 12:19:39;;;;;;;6.25;2.05;;;21.80;99.90;;;;;;4947950;29;20032;-73
2021/09/04 12:22:04;;;;;;;5.70;2.03;;;21.80;99.90;;;;;;4947564;29;20091;-73
2021/09/04 12:24:31;;;;;;;12.23;2.15;;;21.80;99.90;;;;;;4947638;29;20032;-74
2021/09/04 12:26:57;;;;;;;6.75;1.98;;;22.00;99.90;;;;;;4947446;29;20054;-74
2021/09/04 12:29:28;;;;;;;4.60;2.20;;;22.40;99.90;;;;;;4930841;29;20496;-74
2021/09/04 12:32:06;;;;;;;6.00;2.33;;;22.50;99.90;;;;;;4948075;29;20039;-74
2021/09/04 12:34:32;;;;;;;3.65;1.80;;;22.30;99.90;;;;;;4947421;29;20055;-73
2021/09/04 12:36:58;;;;;;;4.30;2.33;;;22.20;99.90;;;;;;4947477;29;20096;-73
2021/09/04 12:39:27;;;;;;;7.30;2.22;;;22.10;99.90;;;;;;4947585;29;20040;-73
2021/09/04 12:42:05;;;;;;;8.70;2.35;;;22.00;99.90;;;;;;4947175;29;20102;-75
2021/09/04 12:44:42;;;;;;;6.20;1.90;;;22.30;99.90;;;;;;4948044;29;20031;-73
2021/09/04 12:47:08;;;;;;;6.60;2.85;;;22.60;99.90;;;;;;4948135;29;20046;-74